createdAt,value
2017-08-17T00:00:10.007Z,14.77
2017-08-17T00:02:38.298Z,12.87
2017-08-17T00:05:05.842Z,14.37
2017-08-17T00:07:34.118Z,11.67
2017-08-17T00:10:02.388Z,11.97
2017-08-17T00:12:30.684Z,14.77
2017-08-17T00:14:58.202Z,13.23
2017-08-17T00:17:25.714Z,11.93
2017-08-17T00:19:53.284Z,11.27
2017-08-17T00:22:20.784Z,13.80
2017-08-17T00:24:48.404Z,15.37
2017-08-17T00:27:15.928Z,15.40
2017-08-17T00:29:44.208Z,16.33
2017-08-17T00:32:12.480Z,16.60
2017-08-17T00:34:40.794Z,20.30
2017-08-17T00:37:08.288Z,12.87
2017-08-17T00:39:35.789Z,12.47
2017-08-17T00:42:03.307Z,13.73
2017-08-17T00:44:30.826Z,12.57
2017-08-17T00:46:58.323Z,18.63
2017-08-17T00:49:25.851Z,12.23
2017-08-17T00:51:53.366Z,13.90
2017-08-17T00:54:21.641Z,12.73
2017-08-17T00:56:49.949Z,14.67
2017-08-17T00:59:17.462Z,12.93
2017-08-17T01:01:45.732Z,13.10
2017-08-17T01:04:13.269Z,11.20
2017-08-17T01:06:40.790Z,14.50
2017-08-17T01:09:08.293Z,13.57
2017-08-17T01:11:35.828Z,17.37
2017-08-17T01:14:03.328Z,19.83
2017-08-17T01:16:30.851Z,15.30
2017-08-17T01:18:58.371Z,15.50
2017-08-17T01:21:25.892Z,16.53
2017-08-17T01:23:53.395Z,14.43
2017-08-17T01:26:20.928Z,14.20
2017-08-17T01:28:49.218Z,18.40
2017-08-17T01:31:16.732Z,15.30
2017-08-17T01:33:45.075Z,13.73
2017-08-17T01:36:12.580Z,15.43
2017-08-17T01:38:40.195Z,12.63
2017-08-17T01:41:07.719Z,17.47
2017-08-17T01:43:36.029Z,14.57
2017-08-17T01:46:03.592Z,15.00
2017-08-17T01:48:31.120Z,15.80
2017-08-17T01:50:59.379Z,12.97
2017-08-17T01:53:27.653Z,12.57
2017-08-17T01:55:55.190Z,13.40
2017-08-17T01:58:22.704Z,19.93
2017-08-17T02:00:50.203Z,10.93
2017-08-17T02:03:17.749Z,14.77
2017-08-17T02:05:45.270Z,18.77
2017-08-17T02:08:12.771Z,13.63
2017-08-17T02:10:40.314Z,17.33
2017-08-17T02:13:07.838Z,22.60
2017-08-17T02:15:36.142Z,19.83
2017-08-17T02:18:03.671Z,17.57
2017-08-17T02:20:31.960Z,19.17
2017-08-17T02:22:59.468Z,21.10
2017-08-17T02:25:27.022Z,15.53
2017-08-17T02:27:54.554Z,18.40
2017-08-17T02:30:22.051Z,19.60
2017-08-17T02:32:49.576Z,19.23
2017-08-17T02:35:17.085Z,22.57
2017-08-17T02:37:45.369Z,20.30
2017-08-17T02:40:13.666Z,18.03
2017-08-17T02:42:41.186Z,21.27
2017-08-17T02:45:08.702Z,16.30
2017-08-17T02:47:36.556Z,19.80
2017-08-17T02:50:04.078Z,24.60
2017-08-17T02:52:32.366Z,20.27
2017-08-17T02:55:00.779Z,24.17
2017-08-17T02:57:28.280Z,22.37
2017-08-17T02:59:55.784Z,20.37
2017-08-17T03:02:23.375Z,19.73
2017-08-17T03:04:50.887Z,19.80
2017-08-17T03:07:18.410Z,21.07
2017-08-17T03:09:46.242Z,22.77
2017-08-17T03:12:13.765Z,25.20
2017-08-17T03:14:42.046Z,23.70
2017-08-17T03:17:09.576Z,25.50
2017-08-17T03:19:37.075Z,20.53
2017-08-17T03:22:04.589Z,30.43
2017-08-17T03:24:32.138Z,22.50
2017-08-17T03:26:59.658Z,25.27
2017-08-17T03:29:27.211Z,20.67
2017-08-17T03:31:54.755Z,22.10
2017-08-17T03:34:22.272Z,22.23
2017-08-17T03:36:49.784Z,19.27
2017-08-17T03:39:17.353Z,18.33
2017-08-17T03:41:44.866Z,20.23
2017-08-17T03:44:12.388Z,20.33
2017-08-17T03:46:39.934Z,20.13
2017-08-17T03:49:07.451Z,28.77
2017-08-17T03:51:35.720Z,23.43
2017-08-17T03:54:04.025Z,19.70
2017-08-17T03:56:31.529Z,19.13
2017-08-17T03:58:59.056Z,16.50
2017-08-17T04:01:26.598Z,22.00
2017-08-17T04:03:54.103Z,24.30
2017-08-17T04:06:21.611Z,18.27
2017-08-17T04:08:49.154Z,21.97
2017-08-17T04:11:17.450Z,42.13
2017-08-17T04:13:44.956Z,22.70
2017-08-17T04:16:12.492Z,23.90
2017-08-17T04:18:40.010Z,23.07
2017-08-17T04:21:08.284Z,20.13
2017-08-17T04:23:36.575Z,23.13
2017-08-17T04:26:04.083Z,19.37
2017-08-17T04:28:31.609Z,22.17
2017-08-17T04:30:59.150Z,18.60
2017-08-17T04:33:26.667Z,26.87
2017-08-17T04:35:54.189Z,20.63
2017-08-17T04:38:21.718Z,16.87
2017-08-17T04:40:50.013Z,18.93
2017-08-17T04:43:17.531Z,19.37
2017-08-17T04:45:45.061Z,19.40
2017-08-17T04:48:12.574Z,28.53
2017-08-17T04:50:40.098Z,16.37
2017-08-17T04:53:07.714Z,20.90
2017-08-17T04:55:35.216Z,30.33
2017-08-17T04:58:21.581Z,16.40
2017-08-17T05:00:49.095Z,23.13
2017-08-17T05:03:17.365Z,16.73
2017-08-17T05:05:45.676Z,16.50
2017-08-17T05:08:13.188Z,15.43
2017-08-17T05:10:40.706Z,20.00
2017-08-17T05:13:08.246Z,15.93
2017-08-17T05:15:35.908Z,17.40
2017-08-17T05:18:03.481Z,21.43
2017-08-17T05:20:31.012Z,19.30
2017-08-17T05:22:58.599Z,23.73
2017-08-17T05:25:26.118Z,20.93
2017-08-17T05:27:54.411Z,22.73
2017-08-17T05:30:21.918Z,27.23
2017-08-17T05:32:49.420Z,18.60
2017-08-17T05:35:17.724Z,17.07
2017-08-17T05:37:45.224Z,20.33
2017-08-17T05:40:12.756Z,14.13
2017-08-17T05:42:40.304Z,20.33
2017-08-17T05:45:07.824Z,16.13
2017-08-17T05:47:36.137Z,19.97
2017-08-17T05:50:03.680Z,14.70
2017-08-17T05:52:31.179Z,20.87
2017-08-17T05:54:58.675Z,14.03
2017-08-17T05:57:26.982Z,17.27
2017-08-17T05:59:54.493Z,13.17
2017-08-17T06:02:22.010Z,12.40
2017-08-17T06:04:49.554Z,13.73
2017-08-17T06:07:17.066Z,11.67
2017-08-17T06:09:44.563Z,11.67
2017-08-17T06:12:12.102Z,12.87
2017-08-17T06:14:40.394Z,17.83
2017-08-17T06:17:07.892Z,10.90
2017-08-17T06:19:35.426Z,9.90
2017-08-17T06:22:02.933Z,16.10
2017-08-17T06:24:30.427Z,16.07
2017-08-17T06:26:57.948Z,9.70
2017-08-17T06:29:25.439Z,15.47
2017-08-17T06:31:52.931Z,11.50
2017-08-17T06:34:20.469Z,8.83
2017-08-17T06:36:48.011Z,14.57
2017-08-17T06:39:15.524Z,23.97
2017-08-17T06:41:43.051Z,12.20
2017-08-17T06:44:10.563Z,8.87
2017-08-17T06:46:38.082Z,12.40
2017-08-17T06:49:05.621Z,12.03
2017-08-17T06:51:33.188Z,10.40
2017-08-17T06:54:00.712Z,8.87
2017-08-17T06:56:28.254Z,12.93
2017-08-17T06:58:55.825Z,7.10
2017-08-17T07:01:24.087Z,8.83
2017-08-17T07:03:51.697Z,7.37
2017-08-17T07:06:19.239Z,7.60
2017-08-17T07:08:46.750Z,5.23
2017-08-17T07:11:14.290Z,6.10
2017-08-17T07:13:41.807Z,5.87
2017-08-17T07:16:09.391Z,6.20
2017-08-17T07:18:36.925Z,4.27
2017-08-17T07:21:04.462Z,5.97
2017-08-17T07:23:31.970Z,6.50
2017-08-17T07:25:59.502Z,4.83
2017-08-17T07:28:27.014Z,4.57
2017-08-17T07:30:54.540Z,6.80
2017-08-17T07:33:22.088Z,3.73
2017-08-17T07:35:49.661Z,4.83
2017-08-17T07:38:17.174Z,4.53
2017-08-17T07:40:45.474Z,3.80
2017-08-17T07:43:13.000Z,2.77
2017-08-17T07:45:40.510Z,5.60
2017-08-17T07:48:08.050Z,3.63
2017-08-17T07:50:35.629Z,3.80
2017-08-17T07:53:03.128Z,7.87
2017-08-17T07:55:31.579Z,3.60
2017-08-17T07:57:59.096Z,3.33
2017-08-17T08:00:27.360Z,2.97
2017-08-17T08:02:55.664Z,3.90
2017-08-17T08:05:23.210Z,10.40
2017-08-17T08:07:50.713Z,2.40
2017-08-17T08:10:18.233Z,2.47
2017-08-17T08:12:45.732Z,3.23
2017-08-17T08:15:13.232Z,3.30
2017-08-17T08:17:41.543Z,2.60
2017-08-17T08:20:09.041Z,2.83
2017-08-17T08:22:36.565Z,4.20
2017-08-17T08:25:04.103Z,5.13
2017-08-17T08:27:31.679Z,4.13
2017-08-17T08:29:59.199Z,3.10
2017-08-17T08:32:27.506Z,2.90
2017-08-17T08:34:55.075Z,7.23
2017-08-17T08:37:22.572Z,3.50
2017-08-17T08:39:50.193Z,8.87
2017-08-17T08:42:17.687Z,4.60
2017-08-17T08:44:45.226Z,10.57
2017-08-17T08:47:12.767Z,3.17
2017-08-17T08:49:40.274Z,3.10
2017-08-17T08:52:07.768Z,3.17
2017-08-17T08:54:35.296Z,5.07
2017-08-17T08:57:03.574Z,6.87
2017-08-17T08:59:31.846Z,7.63
2017-08-17T09:02:00.170Z,3.33
2017-08-17T09:04:27.663Z,5.60
2017-08-17T09:06:55.175Z,5.43
2017-08-17T09:09:22.704Z,3.10
2017-08-17T09:11:51.002Z,4.40
2017-08-17T09:14:18.514Z,4.50
2017-08-17T09:16:46.140Z,3.77
2017-08-17T09:19:13.631Z,3.87
2017-08-17T09:21:41.123Z,4.07
2017-08-17T09:24:09.408Z,2.80
2017-08-17T09:26:36.926Z,2.93
2017-08-17T09:29:04.446Z,2.90
2017-08-17T09:31:31.983Z,3.80
2017-08-17T09:33:59.500Z,2.13
2017-08-17T09:36:27.000Z,7.10
2017-08-17T09:38:54.515Z,2.93
2017-08-17T09:41:22.038Z,3.70
2017-08-17T09:43:49.550Z,3.13
2017-08-17T09:46:17.831Z,4.47
2017-08-17T09:48:46.119Z,9.63
2017-08-17T09:51:14.398Z,4.10
2017-08-17T09:53:42.698Z,2.80
2017-08-17T09:56:10.259Z,4.20
2017-08-17T09:58:37.752Z,4.23
2017-08-17T10:01:05.380Z,2.97
2017-08-17T10:03:32.881Z,3.23
2017-08-17T10:06:00.389Z,3.97
2017-08-17T10:08:28.058Z,3.27
2017-08-17T10:10:55.570Z,3.20
2017-08-17T10:13:23.890Z,2.63
2017-08-17T10:15:51.421Z,3.60
2017-08-17T10:18:19.727Z,2.93
2017-08-17T10:20:47.237Z,2.70
2017-08-17T10:23:14.751Z,3.83
2017-08-17T10:25:42.266Z,2.43
2017-08-17T10:28:10.546Z,4.20
2017-08-17T10:30:38.846Z,6.77
2017-08-17T10:33:06.344Z,5.80
2017-08-17T10:35:33.844Z,6.57
2017-08-17T10:38:01.373Z,3.53
2017-08-17T10:40:28.893Z,6.70
2017-08-17T10:42:56.394Z,2.20
2017-08-17T10:45:25.036Z,2.50
2017-08-17T10:47:52.535Z,3.03
2017-08-17T10:50:20.051Z,2.47
2017-08-17T10:52:47.571Z,11.30
2017-08-17T10:55:15.828Z,3.23
2017-08-17T10:57:43.354Z,2.60
2017-08-17T11:00:10.899Z,8.53
2017-08-17T11:02:38.405Z,6.23
2017-08-17T11:05:05.913Z,4.13
2017-08-17T11:07:33.473Z,18.40
2017-08-17T11:10:00.986Z,3.40
2017-08-17T11:12:29.258Z,14.63
2017-08-17T11:14:56.780Z,8.10
2017-08-17T11:17:24.295Z,4.43
2017-08-17T11:19:51.794Z,5.87
2017-08-17T11:22:19.316Z,8.00
2017-08-17T11:24:46.811Z,4.50
2017-08-17T11:27:14.322Z,4.43
2017-08-17T11:29:42.627Z,4.07
2017-08-17T11:32:10.128Z,3.40
2017-08-17T11:34:37.647Z,5.63
2017-08-17T11:37:05.173Z,3.00
2017-08-17T11:39:33.449Z,6.03
2017-08-17T11:42:01.719Z,3.10
2017-08-17T11:44:29.999Z,3.47
2017-08-17T11:46:58.260Z,5.30
2017-08-17T11:49:25.770Z,8.00
2017-08-17T11:51:53.301Z,4.57
2017-08-17T11:54:20.818Z,3.73
2017-08-17T11:56:48.325Z,4.10
2017-08-17T11:59:15.878Z,3.23
2017-08-17T12:01:43.390Z,6.50
2017-08-17T12:04:10.890Z,3.70
2017-08-17T12:06:38.416Z,3.77
2017-08-17T12:09:05.916Z,7.70
2017-08-17T12:11:33.411Z,30.43
2017-08-17T12:14:01.051Z,18.40
2017-08-17T12:16:28.543Z,7.27
2017-08-17T12:18:56.035Z,3.93
2017-08-17T12:21:24.446Z,3.10
2017-08-17T12:23:51.939Z,4.20
2017-08-17T12:26:19.458Z,4.73
2017-08-17T12:28:47.002Z,5.50
2017-08-17T12:31:14.513Z,5.87
2017-08-17T12:33:42.003Z,6.17
2017-08-17T12:36:10.322Z,4.30
2017-08-17T12:38:37.841Z,2.97
2017-08-17T12:41:06.126Z,3.67
2017-08-17T12:43:33.665Z,4.37
2017-08-17T12:46:01.933Z,4.30
2017-08-17T12:48:30.196Z,4.00
2017-08-17T12:50:57.712Z,5.50
2017-08-17T12:53:25.222Z,5.37
2017-08-17T12:55:52.734Z,3.17
2017-08-17T12:58:20.288Z,4.77
2017-08-17T13:00:47.788Z,7.00
2017-08-17T13:03:15.316Z,3.50
2017-08-17T13:05:42.851Z,4.60
2017-08-17T13:08:10.344Z,3.63
2017-08-17T13:10:37.863Z,13.67
2017-08-17T13:13:05.442Z,3.60
2017-08-17T13:15:32.954Z,3.23
2017-08-17T13:18:01.220Z,4.20
2017-08-17T13:23:17.895Z,3.70
2017-08-17T13:25:45.456Z,3.87
2017-08-17T13:28:12.955Z,3.57
2017-08-17T13:30:40.485Z,4.13
2017-08-17T13:33:08.034Z,11.40
2017-08-17T13:35:35.537Z,3.70
2017-08-17T13:38:03.055Z,3.93
2017-08-17T13:40:30.553Z,5.80
2017-08-17T13:42:58.063Z,8.70
2017-08-17T13:45:25.601Z,3.80
2017-08-17T13:47:53.099Z,6.03
2017-08-17T13:50:20.605Z,5.53
2017-08-17T13:52:48.894Z,4.80
2017-08-17T13:55:16.397Z,3.70
2017-08-17T13:57:43.895Z,10.07
2017-08-17T14:00:12.198Z,7.97
2017-08-17T14:02:39.766Z,5.47
2017-08-17T14:05:07.327Z,4.50
2017-08-17T14:07:34.874Z,3.40
2017-08-17T14:10:02.445Z,6.13
2017-08-17T14:12:29.963Z,3.93
2017-08-17T14:14:58.315Z,3.87
2017-08-17T14:17:25.833Z,3.83
2017-08-17T14:19:53.346Z,3.40
2017-08-17T14:22:22.495Z,3.10
2017-08-17T14:24:50.052Z,9.23
2017-08-17T14:27:17.548Z,3.53
2017-08-17T14:29:45.067Z,11.17
2017-08-17T14:32:12.594Z,6.40
2017-08-17T14:34:40.860Z,4.77
2017-08-17T14:37:09.158Z,3.63
2017-08-17T14:39:36.670Z,3.03
2017-08-17T14:42:04.299Z,3.73
2017-08-17T14:44:31.823Z,5.17
2017-08-17T14:47:00.083Z,4.53
2017-08-17T14:49:27.694Z,3.30
2017-08-17T14:51:55.238Z,8.03
2017-08-17T14:54:22.757Z,7.10
2017-08-17T14:56:50.372Z,4.83
2017-08-17T14:59:17.918Z,3.43
2017-08-17T15:01:45.442Z,3.20
2017-08-17T15:04:13.716Z,4.53
2017-08-17T15:06:41.325Z,4.13
2017-08-17T15:09:08.825Z,3.43
2017-08-17T15:11:36.319Z,3.77
2017-08-17T15:14:03.866Z,4.30
2017-08-17T15:16:32.141Z,3.77
2017-08-17T15:19:00.530Z,8.40
2017-08-17T15:21:28.057Z,2.77
2017-08-17T15:23:55.551Z,2.57
2017-08-17T15:26:23.079Z,3.43
2017-08-17T15:28:50.604Z,3.40
2017-08-17T15:31:18.146Z,5.70
2017-08-17T15:33:45.705Z,4.20
2017-08-17T15:36:13.268Z,2.70
2017-08-17T15:38:40.778Z,7.40
2017-08-17T15:41:09.059Z,3.33
2017-08-17T15:43:37.478Z,2.60
2017-08-17T15:46:05.003Z,7.57
2017-08-17T15:48:33.263Z,5.20
2017-08-17T15:51:00.785Z,2.80
2017-08-17T15:53:28.297Z,3.00
2017-08-17T15:55:56.579Z,4.73
2017-08-17T15:58:24.128Z,6.43
2017-08-17T16:00:52.403Z,3.27
2017-08-17T16:03:20.667Z,3.93
2017-08-17T16:05:48.208Z,4.53
2017-08-17T16:08:15.724Z,2.23
2017-08-17T16:10:43.290Z,5.17
2017-08-17T16:13:10.842Z,2.30
2017-08-17T16:15:38.340Z,2.40
2017-08-17T16:18:05.843Z,4.43
2017-08-17T16:20:33.384Z,2.57
2017-08-17T16:23:01.667Z,2.40
2017-08-17T16:25:29.942Z,2.60
2017-08-17T16:27:58.246Z,2.13
2017-08-17T16:30:25.966Z,2.67
2017-08-17T16:32:53.577Z,3.30
2017-08-17T16:35:21.929Z,2.37
2017-08-17T16:37:49.513Z,3.50
2017-08-17T16:40:17.102Z,8.33
2017-08-17T16:42:45.186Z,2.80
2017-08-17T16:47:34.523Z,3.00
2017-08-17T16:50:02.057Z,2.30
2017-08-17T16:52:30.349Z,2.70
2017-08-17T16:54:57.924Z,5.73
2017-08-17T16:57:25.589Z,3.50
2017-08-17T16:59:54.016Z,5.70
2017-08-17T17:02:21.521Z,15.83
2017-08-17T17:04:49.032Z,2.77
2017-08-17T17:07:16.754Z,3.10
2017-08-17T17:09:44.294Z,5.73
2017-08-17T17:12:11.811Z,2.87
2017-08-17T17:14:40.135Z,2.50
2017-08-17T17:17:07.665Z,3.00
2017-08-17T17:19:35.186Z,4.10
2017-08-17T17:22:02.694Z,3.37
2017-08-17T17:24:30.230Z,3.03
2017-08-17T17:26:58.501Z,3.40
2017-08-17T17:29:26.778Z,2.67
2017-08-17T17:31:55.077Z,5.40
2017-08-17T17:34:22.571Z,3.53
2017-08-17T17:36:50.083Z,6.10
2017-08-17T17:39:18.377Z,3.00
2017-08-17T17:41:45.898Z,3.10
2017-08-17T17:44:13.429Z,3.90
2017-08-17T17:46:40.927Z,2.73
2017-08-17T17:49:09.229Z,6.00
2017-08-17T17:51:36.720Z,2.67
2017-08-17T17:54:04.235Z,3.50
2017-08-17T17:56:31.821Z,2.60
2017-08-17T17:58:59.315Z,5.00
2017-08-17T18:01:26.850Z,3.60
2017-08-17T18:03:54.361Z,3.20
2017-08-17T18:06:22.624Z,3.73
2017-08-17T18:08:50.913Z,2.90
2017-08-17T18:11:19.193Z,3.60
2017-08-17T18:13:46.714Z,4.03
2017-08-17T18:16:14.242Z,2.83
2017-08-17T18:18:41.779Z,3.27
2017-08-17T18:21:09.304Z,3.70
2017-08-17T18:23:36.795Z,8.33
2017-08-17T18:26:04.302Z,4.03
2017-08-17T18:28:31.835Z,4.27
2017-08-17T18:30:59.332Z,4.40
2017-08-17T18:33:26.855Z,3.40
2017-08-17T18:35:54.370Z,3.10
2017-08-17T18:38:21.977Z,2.80
2017-08-17T18:40:49.492Z,3.50
2017-08-17T18:43:17.774Z,4.00
2017-08-17T18:45:45.314Z,3.73
2017-08-17T18:48:13.602Z,4.27
2017-08-17T18:50:41.859Z,3.70
2017-08-17T18:53:09.379Z,3.50
2017-08-17T18:55:36.880Z,3.30
2017-08-17T18:58:04.402Z,4.83
2017-08-17T19:00:31.932Z,3.97
2017-08-17T19:02:59.447Z,6.80
2017-08-17T19:05:26.963Z,3.57
2017-08-17T19:07:54.502Z,6.03
2017-08-17T19:10:22.025Z,5.83
2017-08-17T19:12:49.515Z,4.13
2017-08-17T19:15:17.049Z,3.70
2017-08-17T19:17:45.334Z,4.83
2017-08-17T19:20:13.614Z,3.43
2017-08-17T19:22:41.899Z,3.60
2017-08-17T19:25:09.396Z,5.00
2017-08-17T19:27:36.906Z,3.17
2017-08-17T19:30:05.232Z,3.83
2017-08-17T19:32:32.751Z,3.73
2017-08-17T19:35:00.271Z,4.40
2017-08-17T19:37:27.787Z,8.23
2017-08-17T19:39:55.346Z,3.97
2017-08-17T19:42:22.882Z,4.40
2017-08-17T19:44:50.394Z,4.23
2017-08-17T19:47:17.910Z,3.87
2017-08-17T19:49:45.439Z,7.70
2017-08-17T19:52:13.758Z,3.63
2017-08-17T19:54:41.317Z,3.63
2017-08-17T19:57:08.827Z,3.80
2017-08-17T19:59:36.331Z,3.90
2017-08-17T20:02:03.856Z,7.20
2017-08-17T20:04:32.147Z,5.83
2017-08-17T20:06:59.645Z,4.50
2017-08-17T20:09:27.164Z,3.80
2017-08-17T20:11:54.677Z,3.57
2017-08-17T20:14:22.207Z,8.43
2017-08-17T20:16:49.721Z,7.97
2017-08-17T20:19:18.014Z,5.80
2017-08-17T20:21:45.571Z,7.43
2017-08-17T20:24:13.085Z,6.73
2017-08-17T20:26:40.582Z,6.20
2017-08-17T20:29:08.109Z,4.10
2017-08-17T20:31:35.730Z,4.17
2017-08-17T20:34:03.246Z,5.73
2017-08-17T20:36:31.540Z,7.23
2017-08-17T20:38:59.032Z,4.80
2017-08-17T20:41:26.531Z,5.33
2017-08-17T20:43:54.066Z,6.37
2017-08-17T20:46:21.594Z,6.90
2017-08-17T20:48:49.088Z,4.53
2017-08-17T20:51:16.716Z,6.57
2017-08-17T20:53:44.212Z,4.37
2017-08-17T20:56:11.728Z,5.97
2017-08-17T20:58:39.247Z,5.90
2017-08-17T21:01:07.508Z,4.20
2017-08-17T21:03:35.016Z,4.10
2017-08-17T21:06:02.535Z,5.37
2017-08-17T21:08:30.042Z,6.00
2017-08-17T21:10:57.535Z,5.23
2017-08-17T21:13:25.078Z,4.43
2017-08-17T21:15:52.590Z,4.63
2017-08-17T21:18:20.106Z,4.03
2017-08-17T21:20:47.636Z,4.17
2017-08-17T21:23:15.127Z,5.53
2017-08-17T21:25:42.634Z,7.10
2017-08-17T21:28:10.182Z,3.73
2017-08-17T21:30:37.692Z,5.33
2017-08-17T21:33:05.187Z,4.70
2017-08-17T21:35:33.488Z,4.53
2017-08-17T21:38:01.057Z,5.43
2017-08-17T21:40:28.551Z,4.20
2017-08-17T21:42:56.080Z,4.50
2017-08-17T21:45:23.594Z,5.40
2017-08-17T21:47:51.859Z,6.23
2017-08-17T21:50:19.468Z,5.20
2017-08-17T21:52:46.976Z,4.30
2017-08-17T21:55:14.517Z,3.23
2017-08-17T21:57:42.012Z,6.07
2017-08-17T22:00:10.290Z,4.70
2017-08-17T22:02:37.821Z,4.43
2017-08-17T22:05:05.320Z,4.80
2017-08-17T22:07:32.829Z,6.77
2017-08-17T22:10:00.359Z,3.03
2017-08-17T22:12:27.856Z,4.87
2017-08-17T22:14:55.396Z,3.40
2017-08-17T22:17:22.896Z,8.97
2017-08-17T22:19:51.180Z,2.97
2017-08-17T22:22:18.719Z,2.80
2017-08-17T22:24:47.011Z,2.90
2017-08-17T22:27:14.688Z,3.07
2017-08-17T22:29:42.208Z,3.33
2017-08-17T22:32:10.637Z,3.83
2017-08-17T22:34:38.154Z,4.60
2017-08-17T22:37:06.443Z,4.07
2017-08-17T22:39:33.979Z,12.23
2017-08-17T22:42:01.499Z,2.90
2017-08-17T22:44:29.043Z,3.20
2017-08-17T22:46:56.554Z,3.20
2017-08-17T22:49:24.080Z,4.70
2017-08-17T22:51:51.618Z,3.13
2017-08-17T22:54:19.117Z,6.80
2017-08-17T22:56:46.740Z,5.53
2017-08-17T22:59:14.239Z,3.00
2017-08-17T23:01:41.794Z,3.33
2017-08-17T23:04:09.301Z,3.77
2017-08-17T23:06:36.799Z,11.30
2017-08-17T23:09:04.328Z,3.27
2017-08-17T23:11:31.837Z,3.50
2017-08-17T23:13:59.361Z,3.00
2017-08-17T23:16:26.865Z,4.47
2017-08-17T23:18:55.124Z,3.10
2017-08-17T23:21:22.652Z,2.93
2017-08-17T23:23:50.166Z,3.10
2017-08-17T23:26:18.428Z,5.10
2017-08-17T23:28:46.715Z,2.93
2017-08-17T23:31:14.994Z,4.17
2017-08-17T23:33:43.270Z,3.57
2017-08-17T23:36:11.544Z,4.03
2017-08-17T23:38:39.818Z,3.20
2017-08-17T23:41:08.099Z,3.00
2017-08-17T23:43:36.355Z,8.30
2017-08-17T23:46:03.888Z,3.13
2017-08-17T23:48:31.379Z,4.47
2017-08-17T23:50:59.657Z,3.10
2017-08-17T23:53:27.958Z,3.80
2017-08-17T23:55:55.518Z,8.00
2017-08-17T23:58:23.011Z,14.23
